Time;durP1;ratioP1;P1;durP2;ratioP2;P2;SDS_P1;SDS_P2;PMS_P1;PMS_P2;Temp;Humidity;BMP_temperature;BMP_pressure;BME280_temperature;BME280_humidity;BME280_pressure;Samples;Min_cycle;Max_cycle;Signal;HPM_P1;HPM_P2
2023/10/18 00:01:07;;;;;;;1999.90;999.90;;;;;;;2.97;100.00;94117.25;5127611;28;20165;-52
2023/10/18 00:03:33;;;;;;;1999.90;999.90;;;;;;;2.96;100.00;94121.88;5127304;28;20167;-51
2023/10/18 00:06:06;;;;;;;1999.90;999.90;;;;;;;2.93;100.00;94114.56;5127009;28;20480;-52
2023/10/18 00:08:32;;;;;;;1999.90;999.90;;;;;;;2.91;100.00;94114.16;5127747;28;20164;-53
2023/10/18 00:10:59;;;;;;;1999.90;999.90;;;;;;;2.89;100.00;94113.81;5126899;28;20207;-51
2023/10/18 00:13:25;;;;;;;1999.90;999.90;;;;;;;2.89;100.00;94111.09;5127109;28;20219;-52
2023/10/18 00:15:53;;;;;;;1999.90;999.90;;;;;;;2.88;100.00;94109.56;5126856;28;20168;-51
2023/10/18 00:18:19;;;;;;;1999.90;999.90;;;;;;;2.89;100.00;94111.09;5126841;28;20168;-49
2023/10/18 00:20:45;;;;;;;1999.90;999.90;;;;;;;2.90;100.00;94101.84;5127185;28;20339;-50
2023/10/18 00:23:11;;;;;;;1999.90;999.90;;;;;;;2.90;100.00;94101.06;5126706;28;20199;-53
2023/10/18 00:25:36;;;;;;;1999.90;999.90;;;;;;;2.87;100.00;94096.44;5126719;28;20167;-53
2023/10/18 00:28:03;;;;;;;1999.90;999.90;;;;;;;2.85;100.00;94096.84;5126814;28;20168;-52
2023/10/18 00:30:30;;;;;;;1999.90;999.90;;;;;;;2.83;100.00;94085.69;5126452;28;20177;-51
2023/10/18 00:32:55;;;;;;;1999.90;999.90;;;;;;;2.82;100.00;94084.16;5126353;28;20577;-47
2023/10/18 00:35:22;;;;;;;1999.90;999.90;;;;;;;2.82;100.00;94078.75;5126459;28;20242;-51
2023/10/18 00:37:49;;;;;;;1999.90;999.90;;;;;;;2.82;100.00;94084.16;5126325;28;20164;-50
2023/10/18 00:40:21;;;;;;;1999.90;999.90;;;;;;;2.79;100.00;94084.16;5126345;28;20255;-51
2023/10/18 00:42:47;;;;;;;1999.90;999.90;;;;;;;2.79;100.00;94084.16;5126987;28;20161;-52
2023/10/18 00:45:12;;;;;;;1999.90;999.90;;;;;;;2.78;100.00;94086.09;5126780;28;20195;-52
2023/10/18 00:47:38;;;;;;;1999.90;999.90;;;;;;;2.78;100.00;94083.38;5126107;28;20164;-53
2023/10/18 00:50:05;;;;;;;1999.90;999.90;;;;;;;2.78;100.00;94080.69;5126333;28;20168;-53
2023/10/18 00:52:32;;;;;;;1999.90;999.90;;;;;;;2.76;100.00;94085.69;5125935;28;20195;-52
2023/10/18 00:54:57;;;;;;;1999.90;999.90;;;;;;;2.78;100.00;94083.38;5126067;28;20176;-52
2023/10/18 00:57:26;;;;;;;1999.90;999.90;;;;;;;2.75;100.00;94078.78;5125816;28;20184;-49
2023/10/18 00:59:53;;;;;;;1999.90;999.90;;;;;;;2.72;100.00;94074.16;5126406;28;20164;-52
2023/10/18 01:02:19;;;;;;;1999.90;999.90;;;;;;;2.71;100.00;94072.63;5125900;28;20168;-49
2023/10/18 01:04:46;;;;;;;1999.90;999.90;;;;;;;2.76;100.00;94074.91;5125861;28;20168;-52
2023/10/18 01:07:14;;;;;;;1999.90;999.90;;;;;;;2.78;100.00;94069.91;5125693;28;20168;-52
2023/10/18 01:09:48;;;;;;;1999.90;999.90;;;;;;;2.86;100.00;94065.28;5125694;28;20167;-47
2023/10/18 01:12:15;;;;;;;1999.90;999.90;;;;;;;2.90;100.00;94058.72;5126304;28;20196;-51
2023/10/18 01:14:41;;;;;;;1999.90;999.90;;;;;;;2.95;100.00;94062.97;5126104;28;20285;-47
2023/10/18 01:17:08;;;;;;;1999.90;999.90;;;;;;;2.98;100.00;94060.25;5125551;28;20175;-48
2023/10/18 01:19:34;;;;;;;1999.90;999.90;;;;;;;3.02;100.00;94061.03;5125545;28;20164;-50
2023/10/18 01:22:00;;;;;;;1999.90;999.90;;;;;;;3.02;100.00;94058.31;5125965;28;20175;-53
2023/10/18 01:24:34;;;;;;;1999.90;999.90;;;;;;;3.05;100.00;94054.06;5125479;28;20484;-51
2023/10/18 01:27:03;;;;;;;1999.90;999.90;;;;;;;3.07;100.00;94041.75;5125809;28;20232;-53
2023/10/18 01:29:29;;;;;;;1999.90;999.90;;;;;;;3.10;100.00;94040.97;5125861;28;20178;-54
2023/10/18 01:31:55;;;;;;;1999.90;999.90;;;;;;;3.09;100.00;94039.44;5125387;28;20189;-51
2023/10/18 01:34:21;;;;;;;1999.90;999.90;;;;;;;3.12;100.00;94049.44;5126106;28;20243;-52
2023/10/18 01:36:46;;;;;;;1999.90;999.90;;;;;;;3.15;100.00;94054.06;5125079;28;20213;-52
2023/10/18 01:39:21;;;;;;;1999.90;999.90;;;;;;;3.18;100.00;94037.09;5125148;28;20172;-53
2023/10/18 01:41:58;;;;;;;1999.90;999.90;;;;;;;3.17;100.00;94038.25;5125169;28;20169;-54
2023/10/18 01:44:33;;;;;;;1999.90;999.90;;;;;;;3.24;100.00;94030.16;5125937;28;20165;-53
2023/10/18 01:47:09;;;;;;;1999.90;999.90;;;;;;;3.26;100.00;94022.44;5125581;28;20185;-56
2023/10/18 01:49:46;;;;;;;1999.90;999.90;;;;;;;3.29;100.00;94024.34;5125498;28;20209;-54
2023/10/18 01:52:17;;;;;;;1999.90;999.90;;;;;;;3.35;100.00;94014.69;5125731;28;20188;-54
2023/10/18 01:54:43;;;;;;;1999.90;999.90;;;;;;;3.36;100.00;94013.53;5125524;28;20174;-51
2023/10/18 01:57:11;;;;;;;1999.90;999.90;;;;;;;3.37;100.00;94015.09;5124859;28;20184;-54
2023/10/18 01:59:37;;;;;;;1999.90;999.90;;;;;;;3.43;100.00;94005.41;5124867;28;20230;-53
2023/10/18 02:02:10;;;;;;;1999.90;999.90;;;;;;;3.41;100.00;94005.06;5125162;28;20172;-49
2023/10/18 02:04:40;;;;;;;1999.90;999.90;;;;;;;3.47;100.00;94000.03;5125384;28;20172;-53
2023/10/18 02:07:07;;;;;;;1999.90;999.90;;;;;;;3.52;100.00;94002.31;5125241;28;20239;-54
2023/10/18 02:09:49;;;;;;;1999.90;999.90;;;;;;;3.58;100.00;93999.97;5124672;28;20172;-54
2023/10/18 02:12:21;;;;;;;1999.90;999.90;;;;;;;3.58;100.00;94009.59;5124819;28;20302;-52
2023/10/18 02:14:48;;;;;;;1999.90;999.90;;;;;;;3.71;100.00;93995.66;5125123;28;20171;-52
2023/10/18 02:17:13;;;;;;;1999.90;999.90;;;;;;;3.70;100.00;93997.59;5124581;28;20206;-54
2023/10/18 02:19:39;;;;;;;1999.90;999.90;;;;;;;3.67;100.00;93994.91;5124590;28;20172;-52
2023/10/18 02:22:07;;;;;;;1999.90;999.90;;;;;;;3.64;100.00;93998.41;5124485;28;20170;-51
2023/10/18 02:24:36;;;;;;;1999.90;999.90;;;;;;;3.67;100.00;94003.78;5124478;28;20172;-54
2023/10/18 02:27:02;;;;;;;1999.90;999.90;;;;;;;3.64;100.00;93993.00;5124681;28;20178;-53
2023/10/18 02:29:39;;;;;;;1999.90;999.90;;;;;;;3.58;100.00;93999.97;5124420;28;20171;-53
2023/10/18 02:32:21;;;;;;;1999.90;999.90;;;;;;;3.57;100.00;93993.03;5124479;28;20238;-53
2023/10/18 02:34:46;;;;;;;1999.90;999.90;;;;;;;3.62;100.00;93995.31;5124897;28;20221;-49
2023/10/18 02:37:12;;;;;;;1999.90;999.90;;;;;;;3.64;100.00;93987.59;5124348;28;20165;-51
2023/10/18 02:39:39;;;;;;;1999.90;999.90;;;;;;;3.64;100.00;93984.91;5124401;28;20182;-51
2023/10/18 02:42:04;;;;;;;1999.90;999.90;;;;;;;3.73;100.00;93979.84;5124221;28;20165;-53
2023/10/18 02:44:33;;;;;;;1999.90;999.90;;;;;;;3.65;100.00;93972.94;5124292;28;20168;-53
2023/10/18 02:49:57;;;;;;;1999.90;999.90;;;;;;;3.53;100.00;93950.66;5113123;28;20177;-50
2023/10/18 02:52:22;;;;;;;1999.90;999.90;;;;;;;3.54;100.00;93949.47;5124092;28;20357;-48
2023/10/18 02:54:48;;;;;;;1999.90;999.90;;;;;;;3.56;100.00;93948.34;5126380;28;20168;-52
2023/10/18 02:57:14;;;;;;;1999.90;999.90;;;;;;;3.48;100.00;93942.97;5128321;28;20184;-52
2023/10/18 02:59:41;;;;;;;1999.90;999.90;;;;;;;3.41;100.00;93953.03;5128265;28;20165;-51
2023/10/18 03:02:13;;;;;;;1999.90;999.90;;;;;;;3.45;100.00;93935.66;5128644;28;20187;-53
2023/10/18 03:04:39;;;;;;;1999.90;999.90;;;;;;;3.27;100.00;93942.28;5128762;28;20195;-50
2023/10/18 03:07:08;;;;;;;1999.90;999.90;;;;;;;3.26;100.00;93940.75;5128143;28;20191;-52
2023/10/18 03:11:59;;;;;;;1999.90;999.90;;;;;;;3.14;100.00;93931.16;5129170;28;20164;-50
2023/10/18 03:14:41;;;;;;;1999.90;999.90;;;;;;;3.12;100.00;93930.81;5128005;28;20164;-48
2023/10/18 03:17:19;;;;;;;1999.90;999.90;;;;;;;3.13;100.00;93924.25;5128376;28;20164;-52
2023/10/18 03:19:49;;;;;;;1999.90;999.90;;;;;;;3.10;100.00;93922.34;5128557;28;20170;-49
2023/10/18 03:22:19;;;;;;;1999.90;999.90;;;;;;;3.17;100.00;93927.69;5128358;28;20164;-51
2023/10/18 03:24:45;;;;;;;1999.90;999.90;;;;;;;3.14;100.00;93923.09;5128258;28;20208;-52
2023/10/18 03:27:11;;;;;;;1999.90;999.90;;;;;;;3.19;100.00;93913.81;5128257;28;20239;-50
2023/10/18 03:29:43;;;;;;;1999.90;999.90;;;;;;;3.26;100.00;93925.34;5128202;28;20160;-54
2023/10/18 03:32:14;;;;;;;1999.90;999.90;;;;;;;3.20;100.00;93916.13;5127818;28;20220;-50
2023/10/18 03:34:41;;;;;;;1999.90;999.90;;;;;;;3.13;100.00;93926.94;5128247;28;20160;-52
2023/10/18 03:37:07;;;;;;;1999.90;999.90;;;;;;;3.14;100.00;93923.09;5127577;28;20160;-51
2023/10/18 03:39:33;;;;;;;1999.90;999.90;;;;;;;3.11;100.00;93917.72;5128059;28;20205;-54
2023/10/18 03:41:59;;;;;;;1999.90;999.90;;;;;;;3.03;100.00;93922.34;5127364;28;20163;-52
2023/10/18 03:44:28;;;;;;;1999.90;999.90;;;;;;;3.05;100.00;93917.34;5127437;28;20165;-49
2023/10/18 03:47:03;;;;;;;1999.90;999.90;;;;;;;3.01;100.00;93916.59;5127343;28;20201;-50
2023/10/18 03:51:57;;;;;;;1999.90;999.90;;;;;;;3.03;100.00;93919.66;5128179;28;20163;-52
2023/10/18 03:54:35;;;;;;;1999.90;999.90;;;;;;;3.04;100.00;93918.53;5127187;28;20175;-49
2023/10/18 03:57:06;;;;;;;1999.90;999.90;;;;;;;3.05;100.00;93914.66;5127134;28;20244;-53
2023/10/18 03:59:40;;;;;;;1999.90;999.90;;;;;;;3.07;100.00;93916.97;5127661;28;20366;-53
2023/10/18 04:02:07;;;;;;;1999.90;999.90;;;;;;;3.15;100.00;93918.47;5127559;28;20159;-53
2023/10/18 04:04:35;;;;;;;1999.90;999.90;;;;;;;3.18;100.00;93913.03;5126553;28;20247;-52
2023/10/18 04:07:12;;;;;;;1999.90;999.90;;;;;;;3.09;100.00;93918.09;5127374;28;20164;-53
2023/10/18 04:09:40;;;;;;;1999.90;999.90;;;;;;;3.10;100.00;93922.34;5127497;28;20179;-52
2023/10/18 04:12:07;;;;;;;1999.90;999.90;;;;;;;3.04;100.00;93915.81;5126433;28;20160;-50
2023/10/18 04:14:33;;;;;;;1999.90;999.90;;;;;;;3.03;100.00;93903.50;5126869;28;20239;-51
2023/10/18 04:16:59;;;;;;;1999.90;999.90;;;;;;;2.97;100.00;93907.78;5127253;28;20165;-50
2023/10/18 04:19:24;;;;;;;1999.90;999.90;;;;;;;2.94;100.00;93897.75;5126745;28;20163;-50
2023/10/18 04:21:53;;;;;;;1999.90;999.90;;;;;;;3.00;100.00;93896.22;5127217;28;20161;-54
2023/10/18 04:24:23;;;;;;;1999.90;999.90;;;;;;;2.92;100.00;93893.94;5126289;28;20168;-50
2023/10/18 04:26:49;;;;;;;1999.90;999.90;;;;;;;2.90;100.00;93891.63;5127060;28;20189;-52
2023/10/18 04:29:22;;;;;;;1999.90;999.90;;;;;;;2.76;100.00;93894.38;5126996;28;20168;-52
2023/10/18 04:31:49;;;;;;;1999.90;999.90;;;;;;;2.82;100.00;93890.13;5126704;28;20168;-49
2023/10/18 04:34:18;;;;;;;1999.90;999.90;;;;;;;2.80;100.00;93891.63;5126835;28;20326;-53
2023/10/18 04:36:44;;;;;;;1999.90;999.90;;;;;;;2.79;100.00;93890.13;5126641;28;20247;-55
2023/10/18 04:39:11;;;;;;;1999.90;999.90;;;;;;;2.77;100.00;93887.81;5126268;28;20209;-51
2023/10/18 04:41:37;;;;;;;1999.90;999.90;;;;;;;2.76;100.00;93880.88;5126248;28;20168;-54
2023/10/18 04:44:05;;;;;;;1999.90;999.90;;;;;;;2.85;100.00;93881.22;5125686;28;20252;-51
2023/10/18 04:46:32;;;;;;;1999.90;999.90;;;;;;;2.85;100.00;93875.84;5126681;28;20172;-51
2023/10/18 04:51:28;;;;;;;1999.90;999.90;;;;;;;2.89;100.00;93881.22;5127242;27;20163;-51
2023/10/18 04:53:59;;;;;;;1999.90;999.90;;;;;;;2.88;100.00;93872.38;5126461;28;20192;-53
2023/10/18 04:59:27;;;;;;;1999.90;999.90;;;;;;;2.96;100.00;93862.34;5126567;28;20179;-54
2023/10/18 05:04:25;;;;;;;1999.90;999.90;;;;;;;3.00;100.00;93861.16;5126859;28;20157;-54
2023/10/18 05:06:54;;;;;;;1999.90;999.90;;;;;;;2.98;100.00;93850.00;5126268;28;20179;-53
2023/10/18 05:09:56;;;;;;;1999.90;999.90;;;;;;;3.08;100.00;93843.00;5126132;28;20165;-49
2023/10/18 05:17:30;;;;;;;1999.90;999.90;;;;;;;3.01;100.00;93843.81;5125855;28;20159;-53
2023/10/18 05:19:56;;;;;;;1999.90;999.90;;;;;;;3.06;100.00;93834.56;5125143;28;20160;-54
2023/10/18 05:22:25;;;;;;;1999.90;999.90;;;;;;;3.02;100.00;93834.56;5125373;28;20168;-53
2023/10/18 05:28:02;;;;;;;1999.90;999.90;;;;;;;3.04;100.00;93837.66;5126330;28;20155;-52
2023/10/18 05:33:29;;;;;;;1999.90;999.90;;;;;;;3.05;100.00;93855.34;5126003;28;20249;-51
2023/10/18 05:36:03;;;;;;;1999.90;999.90;;;;;;;3.20;100.00;93842.53;5125555;28;20161;-52
2023/10/18 05:43:58;;;;;;;1999.90;999.90;;;;;;;3.13;100.00;93861.47;5126008;27;20183;-51
2023/10/18 05:46:33;;;;;;;1999.90;999.90;;;;;;;3.14;100.00;93866.47;5124881;28;20164;-53
2023/10/18 05:49:00;;;;;;;1999.90;999.90;;;;;;;3.13;100.00;93862.22;5124880;28;20160;-52
2023/10/18 05:51:26;;;;;;;1999.90;999.90;;;;;;;3.20;100.00;93858.72;5124838;28;20195;-52
2023/10/18 05:53:59;;;;;;;1999.90;999.90;;;;;;;3.13;100.00;93851.44;5125166;28;20267;-49
2023/10/18 05:56:29;;;;;;;1999.90;999.90;;;;;;;3.13;100.00;93856.84;5124779;28;20182;-53
2023/10/18 06:01:39;;;;;;;1999.90;999.90;;;;;;;3.19;100.00;93860.66;5125659;28;20179;-56
2023/10/18 06:04:05;;;;;;;1999.90;999.90;;;;;;;3.20;100.00;93861.41;5125416;28;20449;-54
2023/10/18 06:06:30;;;;;;;1999.90;999.90;;;;;;;3.30;100.00;93860.59;5125112;28;20172;-52
2023/10/18 06:08:58;;;;;;;1999.90;999.90;;;;;;;3.35;100.00;93860.94;5124528;28;20160;-54
2023/10/18 06:11:25;;;;;;;1999.90;999.90;;;;;;;3.33;100.00;93876.78;5124396;28;20186;-54
2023/10/18 06:13:52;;;;;;;1999.90;999.90;;;;;;;3.37;100.00;93872.13;5125058;28;20206;-49
2023/10/18 06:16:18;;;;;;;1999.90;999.90;;;;;;;3.39;100.00;93869.78;5124549;28;20164;-52
2023/10/18 06:18:48;;;;;;;1999.90;999.90;;;;;;;3.45;100.00;93872.84;5124409;28;20182;-53
2023/10/18 06:21:18;;;;;;;1999.90;999.90;;;;;;;3.47;100.00;93876.66;5124155;28;20193;-53
2023/10/18 06:23:54;;;;;;;1999.90;999.90;;;;;;;3.53;100.00;93870.88;5124437;28;20180;-51
2023/10/18 06:26:30;;;;;;;1999.90;999.90;;;;;;;3.53;100.00;93864.31;5124859;28;20226;-47
2023/10/18 06:29:08;;;;;;;1999.90;999.90;;;;;;;3.57;100.00;93871.63;5124501;28;20155;-48
2023/10/18 06:31:39;;;;;;;1999.90;999.90;;;;;;;3.60;100.00;93870.81;5124812;28;20172;-49
2023/10/18 06:34:10;;;;;;;1999.90;999.90;;;;;;;3.68;100.00;93875.00;5124598;28;20205;-50
2023/10/18 06:36:38;;;;;;;1999.90;999.90;;;;;;;3.66;100.00;93867.31;5124677;28;20165;-46
2023/10/18 06:39:05;;;;;;;1999.90;999.90;;;;;;;3.72;100.00;93875.75;5124171;28;20472;-49
2023/10/18 06:41:31;;;;;;;1999.90;999.90;;;;;;;3.69;100.00;93876.53;5124135;28;20240;-50
2023/10/18 06:43:58;;;;;;;1999.90;999.90;;;;;;;3.85;100.00;93869.47;5124524;28;20169;-48
2023/10/18 06:46:27;;;;;;;1999.90;999.90;;;;;;;3.96;100.00;93864.00;5124068;28;20174;-52
2023/10/18 06:48:55;;;;;;;1999.90;999.90;;;;;;;3.84;100.00;93867.94;5124123;28;20165;-49
2023/10/18 06:51:33;;;;;;;1999.90;999.90;;;;;;;3.97;100.00;93870.94;5124886;28;20169;-50
2023/10/18 06:54:03;;;;;;;1999.90;999.90;;;;;;;4.10;100.00;93861.94;5124610;28;20234;-53
2023/10/18 06:56:32;;;;;;;1999.90;999.90;;;;;;;4.16;100.00;93859.56;5124052;28;20177;-49
2023/10/18 06:59:09;;;;;;;1999.90;999.90;;;;;;;4.13;100.00;93863.84;5124444;28;20192;-50
2023/10/18 07:01:41;;;;;;;1999.90;999.90;;;;;;;4.15;100.00;93876.94;5123746;28;20165;-47
2023/10/18 07:04:18;;;;;;;1999.90;999.90;;;;;;;4.20;100.00;93874.59;5124400;28;20169;-47
2023/10/18 07:06:49;;;;;;;1999.90;999.90;;;;;;;4.33;100.00;93874.84;5124193;28;20167;-51
2023/10/18 07:09:26;;;;;;;1999.90;999.90;;;;;;;4.49;100.00;93861.56;5124432;28;20162;-47
2023/10/18 07:12:03;;;;;;;1999.90;999.90;;;;;;;4.68;100.00;93860.97;5124412;28;20165;-47
2023/10/18 07:14:31;;;;;;;1999.90;999.90;;;;;;;4.45;100.00;93858.13;5124719;28;20159;-47
2023/10/18 07:17:00;;;;;;;1999.90;999.90;;;;;;;4.50;100.00;93865.78;5124403;28;20187;-47
2023/10/18 07:19:47;;;;;;;1999.90;999.90;;;;;;;4.63;100.00;93870.28;5124419;28;20183;-52
2023/10/18 07:22:20;;;;;;;1999.90;999.90;;;;;;;4.36;100.00;93874.03;5124556;28;20163;-52
2023/10/18 07:24:59;;;;;;;1999.90;999.90;;;;;;;4.47;100.00;93872.75;5124325;28;20170;-54
2023/10/18 07:27:29;;;;;;;1999.90;999.90;;;;;;;4.57;100.00;93865.72;5123550;28;20163;-53
2023/10/18 07:30:01;;;;;;;1999.90;999.90;;;;;;;4.61;100.00;93861.03;5123782;28;20201;-50
2023/10/18 07:32:28;;;;;;;1999.90;999.90;;;;;;;4.90;100.00;93864.97;5123920;28;20297;-47
2023/10/18 07:34:54;;;;;;;1999.90;999.90;;;;;;;4.83;100.00;93867.75;5124208;28;20171;-49
2023/10/18 07:37:38;;;;;;;1999.90;999.90;;;;;;;4.93;100.00;93866.84;5123879;28;20173;-49
2023/10/18 07:40:08;;;;;;;1999.90;999.90;;;;;;;5.05;100.00;93863.59;5125164;28;20163;-52
2023/10/18 07:42:34;;;;;;;1999.90;999.90;;;;;;;5.32;100.00;93867.16;5127943;28;20171;-47
2023/10/18 07:45:04;;;;;;;1999.90;999.90;;;;;;;5.54;100.00;93862.97;5127841;28;20167;-50
2023/10/18 07:47:32;;;;;;;1999.90;999.90;;;;;;;5.61;100.00;93852.03;5127808;28;20171;-49
2023/10/18 07:49:58;;;;;;;1999.90;999.90;;;;;;;5.44;100.00;93836.81;5127276;28;20197;-53
2023/10/18 07:52:23;;;;;;;1999.90;999.90;;;;;;;5.39;100.00;93840.00;5127643;28;20195;-52
2023/10/18 07:54:49;;;;;;;1999.90;999.90;;;;;;;5.50;100.00;93829.78;5127188;28;20190;-52
2023/10/18 07:57:18;;;;;;;1999.90;999.90;;;;;;;5.45;100.00;93833.69;5127159;28;20260;-52
2023/10/18 07:59:46;;;;;;;1999.90;999.90;;;;;;;5.53;100.00;93823.53;5127193;28;20163;-48
2023/10/18 08:02:23;;;;;;;1999.90;999.90;;;;;;;5.64;100.00;93824.13;5127571;28;20167;-49
2023/10/18 08:04:50;;;;;;;1999.90;999.90;;;;;;;5.78;100.00;93837.44;5127357;28;20167;-49
2023/10/18 08:07:20;;;;;;;1999.90;999.90;;;;;;;5.57;100.00;93826.97;5127010;28;20208;-52
2023/10/18 08:09:51;;;;;;;1999.90;999.90;;;;;;;5.86;100.00;93799.03;5127178;28;20163;-54
2023/10/18 08:12:30;;;;;;;1999.90;999.90;;;;;;;5.99;100.00;93764.78;5126696;28;20199;-49
2023/10/18 08:14:56;;;;;;;1999.90;999.90;;;;;;;6.65;100.00;93716.66;5126568;28;20163;-47
2023/10/18 08:17:42;;;;;;;1999.90;999.90;;;;;;;6.97;100.00;93689.59;5126484;28;20174;-53
2023/10/18 08:22:47;;;;;;;1999.90;999.90;;;;;;;6.94;100.00;93670.69;5128047;28;20155;-48
2023/10/18 08:25:24;;;;;;;1999.90;999.90;;;;;;;7.29;100.00;93675.31;5127118;28;20175;-52
2023/10/18 08:27:52;;;;;;;1999.90;999.90;;;;;;;7.44;100.00;93709.06;5127032;28;20156;-53
2023/10/18 08:33:10;;;;;;;1999.90;999.90;;;;;;;7.61;100.00;93794.78;5119043;28;20219;-47
2023/10/18 08:35:37;;;;;;;1999.90;999.90;;;;;;;7.61;100.00;93834.78;5126538;28;20164;-52
2023/10/18 08:38:03;;;;;;;1999.90;999.90;;;;;;;7.56;100.00;93879.50;5126244;28;20274;-48
2023/10/18 08:43:32;;;;;;;1999.90;999.90;;;;;;;7.91;100.00;94001.03;5127292;28;20150;-48
2023/10/18 08:45:59;;;;;;;1999.90;999.90;;;;;;;7.91;100.00;94074.41;5108390;28;20187;-51
2023/10/18 08:48:28;;;;;;;1999.90;999.90;;;;;;;8.08;100.00;94173.09;5126178;28;20193;-51
2023/10/18 08:50:59;;;;;;;1999.90;999.90;;;;;;;8.90;100.00;94258.94;5126596;28;20173;-46
2023/10/18 08:53:26;;;;;;;1999.90;999.90;;;;;;;9.71;100.00;94383.31;5126111;28;20211;-45
2023/10/18 08:55:53;;;;;;;1999.90;999.90;;;;;;;10.15;100.00;94491.09;5126444;28;20174;-49
2023/10/18 08:58:20;;;;;;;1999.90;999.90;;;;;;;10.98;100.00;94566.06;5126313;28;20190;-54
2023/10/18 09:03:13;;;;;;;1999.90;999.90;;;;;;;11.60;100.00;94658.69;5126794;28;20284;-49
2023/10/18 09:05:40;;;;;;;1999.90;999.90;;;;;;;11.15;100.00;94658.53;5125919;28;20171;-46
2023/10/18 09:08:07;;;;;;;1999.90;999.90;;;;;;;11.51;100.00;94685.84;5125965;28;20407;-46
2023/10/18 09:10:33;;;;;;;1999.90;999.90;;;;;;;12.24;100.00;94688.75;5126293;28;20171;-49
2023/10/18 09:15:49;;;;;;;1999.90;999.90;;;;;;;12.66;100.00;94693.88;5126669;28;20184;-45
2023/10/18 09:18:15;;;;;;;1999.90;999.90;;;;;;;13.07;100.00;94699.38;5126206;28;20243;-48
2023/10/18 09:20:41;;;;;;;1999.90;999.90;;;;;;;13.06;100.00;94699.81;5125615;28;20199;-45
2023/10/18 09:23:14;;;;;;;1999.90;999.90;;;;;;;13.69;100.00;94703.34;5125721;28;20175;-46
2023/10/18 09:25:50;;;;;;;1999.90;999.90;;;;;;;13.74;100.00;94711.06;5126332;28;20170;-49
2023/10/18 09:28:25;;;;;;;1999.90;999.90;;;;;;;12.81;100.00;94705.19;5125976;28;20191;-47
2023/10/18 09:31:02;;;;;;;1999.90;999.90;;;;;;;13.03;100.00;94701.44;5125827;28;20170;-47
2023/10/18 09:33:38;;;;;;;1999.90;999.90;;;;;;;13.16;100.00;94706.97;5125572;28;20215;-44
2023/10/18 09:36:18;;;;;;;1999.90;999.90;;;;;;;13.25;100.00;94701.59;5125728;28;20212;-48
2023/10/18 09:38:44;;;;;;;1999.90;999.90;;;;;;;13.69;100.00;94699.88;5125829;28;20170;-50
2023/10/18 09:41:10;;;;;;;1999.90;999.90;;;;;;;14.17;100.00;94702.97;5125112;28;20191;-47
2023/10/18 09:43:38;;;;;;;1999.90;999.90;;;;;;;14.45;100.00;94704.78;5125162;28;20221;-50
2023/10/18 09:46:04;;;;;;;1999.90;999.90;;;;;;;14.55;100.00;94703.66;5125811;28;20174;-53
2023/10/18 09:48:37;;;;;;;1999.90;999.90;;;;;;;14.31;100.00;94699.03;5125583;28;20187;-53
2023/10/18 09:51:06;;;;;;;1999.90;999.90;;;;;;;13.90;100.00;94691.72;5125759;28;20156;-49
2023/10/18 09:53:37;;;;;;;1999.90;999.90;;;;;;;14.40;100.00;94697.13;5125405;28;20191;-47
2023/10/18 09:56:04;;;;;;;1999.90;999.90;;;;;;;14.79;100.00;94702.03;5124617;28;20168;-48
2023/10/18 09:58:33;;;;;;;1999.90;999.90;;;;;;;13.90;100.00;94708.19;5125016;28;20194;-50
2023/10/18 10:01:13;;;;;;;1999.90;999.90;;;;;;;16.01;100.00;94699.34;5125261;28;20172;-49
2023/10/18 10:03:50;;;;;;;1999.90;999.90;;;;;;;14.05;100.00;94698.28;5124905;28;20206;-49
2023/10/18 10:06:18;;;;;;;1999.90;999.90;;;;;;;15.17;100.00;94686.09;5125124;28;20198;-53
2023/10/18 10:08:47;;;;;;;1999.90;999.90;;;;;;;14.64;100.00;94687.25;5125130;28;20168;-54
2023/10/18 10:11:14;;;;;;;1999.90;999.90;;;;;;;14.75;100.00;94701.38;5125099;28;20194;-49
2023/10/18 10:13:42;;;;;;;1999.90;999.90;;;;;;;14.82;100.00;94692.88;5124552;28;20191;-52
2023/10/18 10:16:09;;;;;;;1999.90;999.90;;;;;;;13.82;100.00;94684.91;5125121;28;20194;-49
2023/10/18 10:18:39;;;;;;;1999.90;999.90;;;;;;;14.42;100.00;94689.19;5124652;28;20172;-48
2023/10/18 10:21:08;;;;;;;1999.90;999.90;;;;;;;16.34;100.00;94678.28;5124360;28;20168;-51
2023/10/18 10:23:43;;;;;;;1999.90;999.90;;;;;;;17.51;100.00;94682.22;5125053;28;20179;-53
2023/10/18 10:26:11;;;;;;;1999.90;999.90;;;;;;;18.13;100.00;94678.44;5124880;28;20160;-47
2023/10/18 10:31:55;;;;;;;1999.90;999.90;;;;;;;14.79;100.00;94682.78;5125420;28;20144;-51
2023/10/18 10:34:32;;;;;;;1999.90;999.90;;;;;;;15.75;100.00;94673.25;5124809;28;20206;-49
2023/10/18 10:37:06;;;;;;;1999.90;999.90;;;;;;;15.87;100.00;94664.13;5124797;28;20163;-51
2023/10/18 10:39:32;;;;;;;1999.90;999.90;;;;;;;16.57;100.00;94654.16;5124241;28;20171;-49
2023/10/18 10:45:23;;;;;;;1999.90;999.90;;;;;;;16.50;100.00;94654.44;5125295;28;20254;-49
2023/10/18 10:47:50;;;;;;;1999.90;999.90;;;;;;;15.50;100.00;94645.16;5124732;28;20174;-54
2023/10/18 10:50:53;;;;;;;1999.90;999.90;;;;;;;15.09;100.00;94632.59;5124068;28;20170;-51
2023/10/18 10:53:34;;;;;;;1999.90;999.90;;;;;;;14.10;100.00;94631.84;5123850;28;20353;-50
2023/10/18 10:56:23;;;;;;;1999.90;999.90;;;;;;;13.66;100.00;94619.16;5124794;28;20179;-51
2023/10/18 10:58:54;;;;;;;1999.90;999.90;;;;;;;12.45;100.00;94609.53;5118763;28;20267;-53
2023/10/18 11:01:31;;;;;;;1999.90;999.90;;;;;;;12.11;100.00;94603.84;5124069;28;20187;-47
2023/10/18 11:03:59;;;;;;;1999.90;999.90;;;;;;;11.94;100.00;94598.81;5124660;28;20159;-51
2023/10/18 11:06:32;;;;;;;1999.90;999.90;;;;;;;11.95;100.00;94595.66;5124056;28;20206;-48
2023/10/18 11:08:58;;;;;;;1999.90;999.90;;;;;;;12.22;100.00;94587.13;5124612;28;20167;-49
2023/10/18 11:11:26;;;;;;;1999.90;999.90;;;;;;;12.37;100.00;94571.84;5123921;28;20195;-50
2023/10/18 11:13:52;;;;;;;1999.90;999.90;;;;;;;12.25;100.00;94564.38;5124336;28;20199;-52
2023/10/18 11:16:20;;;;;;;1999.90;999.90;;;;;;;12.36;100.00;94554.66;5127106;28;20196;-52
2023/10/18 11:18:49;;;;;;;1999.90;999.90;;;;;;;12.67;100.00;94546.69;5128260;28;20168;-48
2023/10/18 11:21:30;;;;;;;1999.90;999.90;;;;;;;12.93;100.00;94553.75;5127770;28;20258;-52
2023/10/18 11:23:57;;;;;;;1999.90;999.90;;;;;;;12.58;100.00;94546.59;5128099;28;20198;-53
2023/10/18 11:26:24;;;;;;;1999.90;999.90;;;;;;;12.45;100.00;94532.09;5128350;28;20199;-51
2023/10/18 11:28:55;;;;;;;1999.90;999.90;;;;;;;12.48;100.00;94523.00;5128204;28;20171;-48
2023/10/18 11:31:26;;;;;;;1999.90;999.90;;;;;;;12.57;100.00;94528.63;5127531;28;20168;-50
2023/10/18 11:33:57;;;;;;;1999.90;999.90;;;;;;;12.58;100.00;94510.97;5127775;28;20224;-52
2023/10/18 11:36:27;;;;;;;1999.90;999.90;;;;;;;12.67;100.00;94505.59;5128297;28;20171;-51
2023/10/18 11:41:37;;;;;;;1999.90;999.90;;;;;;;13.37;100.00;94508.09;5128620;28;20155;-50
2023/10/18 11:44:06;;;;;;;1999.90;999.90;;;;;;;13.29;100.00;94510.28;5127522;28;20227;-51
2023/10/18 11:46:56;;;;;;;1999.90;999.90;;;;;;;13.26;100.00;94505.72;5127914;28;20202;-51
2023/10/18 11:49:22;;;;;;;1999.90;999.90;;;;;;;13.07;100.00;94493.00;5127818;28;20164;-49
2023/10/18 11:51:50;;;;;;;1999.90;999.90;;;;;;;12.95;100.00;94499.25;5127605;28;20265;-47
2023/10/18 11:54:29;;;;;;;1999.90;999.90;;;;;;;13.28;100.00;94493.09;5127134;28;20200;-52
2023/10/18 11:56:56;;;;;;;1999.90;999.90;;;;;;;13.61;100.00;94487.28;5127177;28;20176;-53
2023/10/18 11:59:30;;;;;;;1999.90;999.90;;;;;;;13.37;100.00;94488.91;5127101;28;20176;-51
2023/10/18 12:01:58;;;;;;;1999.90;999.90;;;;;;;13.43;100.00;94493.38;5127614;28;20171;-48